Time;durP1;ratioP1;P1;durP2;ratioP2;P2;SDS_P1;SDS_P2;PMS_P1;PMS_P2;Temp;Humidity;BMP_temperature;BMP_pressure;BME280_temperature;BME280_humidity;BME280_pressure;Samples;Min_cycle;Max_cycle;Signal;HPM_P1;HPM_P2
2024/03/13 00:00:10;;;;;;;;;;;;;;;;;;422431;23;978;-88
2024/03/13 00:00:22;;;;;;;;;;;;;;;;;;420396;23;1338;-89
2024/03/13 00:00:33;;;;;;;;;;;;;;;;;;420195;23;981;-88
2024/03/13 00:00:43;;;;;;;;;;;;;;;;;;422416;23;993;-89
2024/03/13 00:00:54;;;;;;;;;;;;;;;;;;424327;23;1137;-86
2024/03/13 00:01:06;;;;;;;;;;;;;;;;;;424411;23;1060;-87
2024/03/13 00:01:16;;;;;;;;;;;;;;;;;;424093;23;1156;-86
2024/03/13 00:01:26;;;;;;;;;;;;;;;;;;424474;23;925;-86
2024/03/13 00:01:37;;;;;;;;;;;;;;;;;;424169;23;1150;-87
2024/03/13 00:01:53;;;;;;;;;;;;;;;;;;422440;23;1028;-87
2024/03/13 00:02:03;;;;;;;;;;;;;;;;;;422415;23;982;-87
2024/03/13 00:02:14;;;;;;;;;;;;;;;;;;426359;23;1170;-86
2024/03/13 00:02:24;;;;;;;;;;;;;;;;;;422337;23;1250;-87
2024/03/13 00:02:35;;;;;;;;;;;;;;;;;;422302;23;1294;-86
2024/03/13 00:02:45;;;;;;;;;;;;;;;;;;422164;23;1905;-87
2024/03/13 00:02:56;;;;;;;;;;;;;;;;;;422270;23;1218;-87
2024/03/13 00:03:06;;;;;;;;;;;;;;;;;;424354;23;915;-86
2024/03/13 00:03:16;;;;;;;;;;;;;;;;;;424182;23;1367;-86
2024/03/13 00:03:26;;;;;;;;;;;;;;;;;;426336;23;1252;-87
2024/03/13 00:03:36;;;;;;;;;;;;;;;;;;424402;23;1271;-87
2024/03/13 00:03:47;;;;;;;;;;;;;;;;;;422334;23;1171;-86
2024/03/13 00:03:58;;;;;;;;;;;;;;;;;;424247;23;1198;-86
2024/03/13 00:04:09;;;;;;;;;;;;;;;;;;424290;23;1001;-87
2024/03/13 00:04:19;;;;;;;;;;;;;;;;;;426134;23;1161;-86
2024/03/13 00:04:43;;;;;;;;;;;;;;;;;;424301;23;993;-87
2024/03/13 00:04:55;;;;;;;;;;;;;;;;;;426388;23;1251;-87
2024/03/13 00:05:07;;;;;;;;;;;;;;;;;;424434;23;930;-87
2024/03/13 00:05:17;;;;;;;;;;;;;;;;;;424497;23;933;-87
2024/03/13 00:05:29;;;;;;;;;;;;;;;;;;426357;23;973;-86
2024/03/13 00:05:39;;;;;;;;;;;;;;;;;;426447;23;1374;-86
2024/03/13 00:05:50;;;;;;;;;;;;;;;;;;426432;23;812;-87
2024/03/13 00:06:00;;;;;;;;;;;;;;;;;;424273;23;1073;-86
2024/03/13 00:06:11;;;;;;;;;;;;;;;;;;422287;23;1274;-86
2024/03/13 00:06:21;;;;;;;;;;;;;;;;;;422508;23;784;-87
2024/03/13 00:06:31;;;;;;;;;;;;;;;;;;422264;23;1381;-87
2024/03/13 00:06:41;;;;;;;;;;;;;;;;;;420509;23;1232;-87
2024/03/13 00:06:52;;;;;;;;;;;;;;;;;;420274;23;776;-87
2024/03/13 00:07:02;;;;;;;;;;;;;;;;;;422264;23;1172;-87
2024/03/13 00:07:13;;;;;;;;;;;;;;;;;;419991;23;1342;-87
2024/03/13 00:07:23;;;;;;;;;;;;;;;;;;422479;23;899;-86
2024/03/13 00:07:33;;;;;;;;;;;;;;;;;;424196;23;1299;-86
2024/03/13 00:07:43;;;;;;;;;;;;;;;;;;424440;23;993;-87
2024/03/13 00:07:53;;;;;;;;;;;;;;;;;;424147;23;1172;-86
2024/03/13 00:08:05;;;;;;;;;;;;;;;;;;422370;23;993;-87
2024/03/13 00:08:16;;;;;;;;;;;;;;;;;;422195;23;997;-87
2024/03/13 00:08:26;;;;;;;;;;;;;;;;;;422453;23;973;-87
2024/03/13 00:08:37;;;;;;;;;;;;;;;;;;421700;23;1009;-86
2024/03/13 00:08:47;;;;;;;;;;;;;;;;;;422454;23;1010;-87
2024/03/13 00:08:59;;;;;;;;;;;;;;;;;;424186;23;1249;-86
2024/03/13 00:09:09;;;;;;;;;;;;;;;;;;426365;23;985;-87
2024/03/13 00:09:20;;;;;;;;;;;;;;;;;;424100;23;1299;-87
2024/03/13 00:09:43;;;;;;;;;;;;;;;;;;420349;23;1179;-87
2024/03/13 00:09:55;;;;;;;;;;;;;;;;;;424272;23;1270;-87
2024/03/13 00:10:06;;;;;;;;;;;;;;;;;;422368;23;1181;-86
2024/03/13 00:10:18;;;;;;;;;;;;;;;;;;424176;23;1370;-87
2024/03/13 00:10:28;;;;;;;;;;;;;;;;;;420323;23;1158;-87
2024/03/13 00:10:38;;;;;;;;;;;;;;;;;;420327;23;993;-86
2024/03/13 00:10:51;;;;;;;;;;;;;;;;;;424425;23;1219;-86
2024/03/13 00:11:01;;;;;;;;;;;;;;;;;;422312;23;910;-87
2024/03/13 00:11:11;;;;;;;;;;;;;;;;;;424276;23;1298;-87
2024/03/13 00:11:23;;;;;;;;;;;;;;;;;;424374;23;977;-87
2024/03/13 00:11:34;;;;;;;;;;;;;;;;;;424354;23;834;-87
2024/03/13 00:11:44;;;;;;;;;;;;;;;;;;424345;23;1089;-87
2024/03/13 00:11:54;;;;;;;;;;;;;;;;;;422198;23;1167;-86
2024/03/13 00:12:04;;;;;;;;;;;;;;;;;;422196;23;1149;-87
2024/03/13 00:12:15;;;;;;;;;;;;;;;;;;422327;23;1139;-87
2024/03/13 00:12:27;;;;;;;;;;;;;;;;;;422361;23;974;-87
2024/03/13 00:12:38;;;;;;;;;;;;;;;;;;422285;23;1168;-87
2024/03/13 00:12:50;;;;;;;;;;;;;;;;;;424316;23;1183;-87
2024/03/13 00:13:00;;;;;;;;;;;;;;;;;;424392;23;1311;-87
2024/03/13 00:13:10;;;;;;;;;;;;;;;;;;426220;23;1184;-87
2024/03/13 00:13:22;;;;;;;;;;;;;;;;;;426560;23;926;-87
2024/03/13 00:13:32;;;;;;;;;;;;;;;;;;424326;23;1161;-87
2024/03/13 00:13:42;;;;;;;;;;;;;;;;;;424288;23;1277;-87
2024/03/13 00:13:55;;;;;;;;;;;;;;;;;;424196;23;1195;-86
2024/03/13 00:14:05;;;;;;;;;;;;;;;;;;424465;23;1269;-87
2024/03/13 00:14:16;;;;;;;;;;;;;;;;;;424234;23;1353;-87
2024/03/13 00:14:27;;;;;;;;;;;;;;;;;;422433;23;1232;-87
2024/03/13 00:14:37;;;;;;;;;;;;;;;;;;422260;23;1250;-87
2024/03/13 00:14:52;;;;;;;;;;;;;;;;;;420401;23;1273;-87
2024/03/13 00:15:03;;;;;;;;;;;;;;;;;;420464;23;1036;-87
2024/03/13 00:15:13;;;;;;;;;;;;;;;;;;422299;23;1399;-87
2024/03/13 00:15:23;;;;;;;;;;;;;;;;;;422332;23;1147;-87
2024/03/13 00:15:34;;;;;;;;;;;;;;;;;;422100;23;914;-86
2024/03/13 00:15:44;;;;;;;;;;;;;;;;;;422391;23;1212;-87
2024/03/13 00:15:57;;;;;;;;;;;;;;;;;;422307;23;937;-87
2024/03/13 00:16:07;;;;;;;;;;;;;;;;;;420343;23;1267;-87
2024/03/13 00:16:17;;;;;;;;;;;;;;;;;;422207;23;1291;-87
2024/03/13 00:16:31;;;;;;;;;;;;;;;;;;422336;23;1361;-87
2024/03/13 00:16:41;;;;;;;;;;;;;;;;;;422217;23;1259;-87
2024/03/13 00:16:53;;;;;;;;;;;;;;;;;;424375;23;1269;-87
2024/03/13 00:17:04;;;;;;;;;;;;;;;;;;422469;23;1248;-87
2024/03/13 00:17:14;;;;;;;;;;;;;;;;;;422420;23;914;-87
2024/03/13 00:17:25;;;;;;;;;;;;;;;;;;424289;23;977;-87
2024/03/13 00:17:35;;;;;;;;;;;;;;;;;;424410;23;1005;-87
2024/03/13 00:17:46;;;;;;;;;;;;;;;;;;424291;23;1287;-87
2024/03/13 00:17:56;;;;;;;;;;;;;;;;;;424478;23;1021;-87
2024/03/13 00:18:06;;;;;;;;;;;;;;;;;;426375;23;981;-87
2024/03/13 00:18:16;;;;;;;;;;;;;;;;;;422269;23;1157;-87
2024/03/13 00:18:29;;;;;;;;;;;;;;;;;;422364;23;1258;-86
2024/03/13 00:18:39;;;;;;;;;;;;;;;;;;422462;23;819;-87
2024/03/13 00:18:51;;;;;;;;;;;;;;;;;;424501;23;970;-87
2024/03/13 00:19:03;;;;;;;;;;;;;;;;;;424181;23;965;-87
2024/03/13 00:19:13;;;;;;;;;;;;;;;;;;424497;23;953;-87
2024/03/13 00:19:23;;;;;;;;;;;;;;;;;;424311;23;1354;-86
2024/03/13 00:19:33;;;;;;;;;;;;;;;;;;426395;23;1482;-87
2024/03/13 00:19:44;;;;;;;;;;;;;;;;;;424240;23;946;-87
2024/03/13 00:19:57;;;;;;;;;;;;;;;;;;424382;23;1337;-87
2024/03/13 00:20:11;;;;;;;;;;;;;;;;;;426466;23;853;-87
2024/03/13 00:20:21;;;;;;;;;;;;;;;;;;426442;23;1397;-86
2024/03/13 00:20:31;;;;;;;;;;;;;;;;;;424503;23;993;-86
2024/03/13 00:20:42;;;;;;;;;;;;;;;;;;422328;23;787;-86
2024/03/13 00:20:52;;;;;;;;;;;;;;;;;;420442;23;978;-87
2024/03/13 00:21:03;;;;;;;;;;;;;;;;;;420369;23;1178;-87
2024/03/13 00:21:13;;;;;;;;;;;;;;;;;;422403;23;1278;-86
2024/03/13 00:21:28;;;;;;;;;;;;;;;;;;422468;23;1032;-87
2024/03/13 00:21:40;;;;;;;;;;;;;;;;;;422474;23;784;-87
2024/03/13 00:21:51;;;;;;;;;;;;;;;;;;420143;23;1186;-87
2024/03/13 00:22:01;;;;;;;;;;;;;;;;;;422371;23;1274;-86
2024/03/13 00:22:13;;;;;;;;;;;;;;;;;;422304;23;1025;-87
2024/03/13 00:22:25;;;;;;;;;;;;;;;;;;420244;23;965;-86
2024/03/13 00:22:36;;;;;;;;;;;;;;;;;;419841;23;1157;-86
2024/03/13 00:22:47;;;;;;;;;;;;;;;;;;420315;23;1933;-87
2024/03/13 00:22:58;;;;;;;;;;;;;;;;;;420222;23;1204;-87
2024/03/13 00:23:09;;;;;;;;;;;;;;;;;;422409;23;1064;-86
2024/03/13 00:23:19;;;;;;;;;;;;;;;;;;422233;23;1188;-87
2024/03/13 00:23:29;;;;;;;;;;;;;;;;;;422417;23;767;-87
2024/03/13 00:23:40;;;;;;;;;;;;;;;;;;426294;23;1176;-87
2024/03/13 00:23:52;;;;;;;;;;;;;;;;;;426488;23;1215;-87
2024/03/13 00:24:02;;;;;;;;;;;;;;;;;;424376;23;953;-87
2024/03/13 00:24:13;;;;;;;;;;;;;;;;;;424458;23;1156;-87
2024/03/13 00:24:24;;;;;;;;;;;;;;;;;;422159;23;1278;-87
2024/03/13 00:24:34;;;;;;;;;;;;;;;;;;422483;23;1005;-87
2024/03/13 00:24:45;;;;;;;;;;;;;;;;;;422361;23;1148;-87
2024/03/13 00:24:59;;;;;;;;;;;;;;;;;;424449;23;1168;-87
2024/03/13 00:25:11;;;;;;;;;;;;;;;;;;426284;23;779;-86
2024/03/13 00:25:22;;;;;;;;;;;;;;;;;;426327;23;960;-87
2024/03/13 00:25:34;;;;;;;;;;;;;;;;;;424399;23;1241;-87
2024/03/13 00:25:45;;;;;;;;;;;;;;;;;;424328;23;981;-87
2024/03/13 00:25:56;;;;;;;;;;;;;;;;;;424489;23;815;-87
2024/03/13 00:26:06;;;;;;;;;;;;;;;;;;424343;23;1301;-87
2024/03/13 00:26:16;;;;;;;;;;;;;;;;;;424435;23;950;-87
2024/03/13 00:26:27;;;;;;;;;;;;;;;;;;428221;23;1055;-87
2024/03/13 00:26:37;;;;;;;;;;;;;;;;;;428625;23;795;-87
2024/03/13 00:26:50;;;;;;;;;;;;;;;;;;424173;23;1156;-87
2024/03/13 00:27:00;;;;;;;;;;;;;;;;;;424386;23;965;-87
2024/03/13 00:27:11;;;;;;;;;;;;;;;;;;424349;23;760;-86
2024/03/13 00:27:21;;;;;;;;;;;;;;;;;;422253;23;1150;-87
2024/03/13 00:27:32;;;;;;;;;;;;;;;;;;424402;23;985;-87
2024/03/13 00:27:45;;;;;;;;;;;;;;;;;;424385;23;791;-87
2024/03/13 00:27:55;;;;;;;;;;;;;;;;;;422289;23;1484;-86
2024/03/13 00:28:07;;;;;;;;;;;;;;;;;;424304;23;1191;-87
2024/03/13 00:28:17;;;;;;;;;;;;;;;;;;422387;23;1274;-87
2024/03/13 00:28:28;;;;;;;;;;;;;;;;;;424209;23;1295;-87
2024/03/13 00:28:39;;;;;;;;;;;;;;;;;;424413;23;1161;-87
2024/03/13 00:28:49;;;;;;;;;;;;;;;;;;424207;23;961;-86
2024/03/13 00:28:59;;;;;;;;;;;;;;;;;;422470;23;969;-86
2024/03/13 00:29:10;;;;;;;;;;;;;;;;;;422281;23;981;-86
2024/03/13 00:29:20;;;;;;;;;;;;;;;;;;424253;23;1255;-86
2024/03/13 00:29:31;;;;;;;;;;;;;;;;;;422254;23;1168;-86
2024/03/13 00:29:47;;;;;;;;;;;;;;;;;;422062;23;1032;-86
2024/03/13 00:29:57;;;;;;;;;;;;;;;;;;422387;23;949;-86
2024/03/13 00:30:08;;;;;;;;;;;;;;;;;;422266;23;1134;-86
2024/03/13 00:30:19;;;;;;;;;;;;;;;;;;424339;23;1342;-86
2024/03/13 00:30:29;;;;;;;;;;;;;;;;;;424212;23;1188;-85
2024/03/13 00:30:40;;;;;;;;;;;;;;;;;;424348;23;997;-85
2024/03/13 00:30:50;;;;;;;;;;;;;;;;;;424296;23;1260;-85
2024/03/13 00:31:01;;;;;;;;;;;;;;;;;;424363;23;1049;-85
2024/03/13 00:31:11;;;;;;;;;;;;;;;;;;424269;23;1307;-85
2024/03/13 00:31:22;;;;;;;;;;;;;;;;;;424383;23;946;-85
2024/03/13 00:31:33;;;;;;;;;;;;;;;;;;424379;23;953;-85
2024/03/13 00:31:44;;;;;;;;;;;;;;;;;;424317;23;1302;-85
2024/03/13 00:31:55;;;;;;;;;;;;;;;;;;424454;23;941;-85
2024/03/13 00:32:05;;;;;;;;;;;;;;;;;;424169;23;1059;-85
2024/03/13 00:32:16;;;;;;;;;;;;;;;;;;424368;23;1328;-85
2024/03/13 00:32:28;;;;;;;;;;;;;;;;;;426455;23;799;-85
2024/03/13 00:32:38;;;;;;;;;;;;;;;;;;424424;23;1156;-85
2024/03/13 00:32:53;;;;;;;;;;;;;;;;;;424402;23;1021;-85
2024/03/13 00:33:04;;;;;;;;;;;;;;;;;;424053;23;1345;-85
2024/03/13 00:33:14;;;;;;;;;;;;;;;;;;426575;23;1056;-85
2024/03/13 00:33:25;;;;;;;;;;;;;;;;;;426238;23;1247;-85
2024/03/13 00:33:37;;;;;;;;;;;;;;;;;;426351;23;1005;-85
2024/03/13 00:33:48;;;;;;;;;;;;;;;;;;424190;23;1192;-85
2024/03/13 00:33:58;;;;;;;;;;;;;;;;;;420355;23;1186;-86
2024/03/13 00:34:09;;;;;;;;;;;;;;;;;;420125;23;1193;-85
2024/03/13 00:34:20;;;;;;;;;;;;;;;;;;422484;23;918;-85
2024/03/13 00:34:30;;;;;;;;;;;;;;;;;;424259;23;922;-85
2024/03/13 00:34:43;;;;;;;;;;;;;;;;;;422421;23;1280;-85
2024/03/13 00:34:53;;;;;;;;;;;;;;;;;;426284;23;1490;-85
2024/03/13 00:35:04;;;;;;;;;;;;;;;;;;426357;23;1048;-85
2024/03/13 00:35:15;;;;;;;;;;;;;;;;;;422329;23;1252;-85
2024/03/13 00:35:25;;;;;;;;;;;;;;;;;;422402;23;1037;-85
2024/03/13 00:35:36;;;;;;;;;;;;;;;;;;422216;23;1241;-85
2024/03/13 00:35:46;;;;;;;;;;;;;;;;;;422418;23;962;-85
2024/03/13 00:35:57;;;;;;;;;;;;;;;;;;420368;23;1150;-85
2024/03/13 00:36:08;;;;;;;;;;;;;;;;;;420374;23;946;-85
2024/03/13 00:36:21;;;;;;;;;;;;;;;;;;420390;23;1137;-85
2024/03/13 00:36:32;;;;;;;;;;;;;;;;;;420282;23;942;-85
2024/03/13 00:36:43;;;;;;;;;;;;;;;;;;422144;23;1216;-85
2024/03/13 00:36:55;;;;;;;;;;;;;;;;;;422246;23;1233;-85
2024/03/13 00:37:06;;;;;;;;;;;;;;;;;;422284;23;1208;-85
2024/03/13 00:37:16;;;;;;;;;;;;;;;;;;422178;23;1215;-85
2024/03/13 00:37:26;;;;;;;;;;;;;;;;;;422322;23;977;-85
2024/03/13 00:37:37;;;;;;;;;;;;;;;;;;422190;23;1345;-85
2024/03/13 00:37:47;;;;;;;;;;;;;;;;;;422374;23;977;-85
2024/03/13 00:37:59;;;;;;;;;;;;;;;;;;424179;23;954;-85
2024/03/13 00:38:11;;;;;;;;;;;;;;;;;;424393;23;1005;-85
2024/03/13 00:38:25;;;;;;;;;;;;;;;;;;424304;23;1279;-85
2024/03/13 00:38:36;;;;;;;;;;;;;;;;;;424561;23;946;-85
2024/03/13 00:38:46;;;;;;;;;;;;;;;;;;424429;23;949;-85
2024/03/13 00:38:58;;;;;;;;;;;;;;;;;;426656;23;1024;-85
2024/03/13 00:39:08;;;;;;;;;;;;;;;;;;426495;23;922;-85
2024/03/13 00:39:19;;;;;;;;;;;;;;;;;;424036;23;1349;-85
2024/03/13 00:39:30;;;;;;;;;;;;;;;;;;422433;23;1013;-85
2024/03/13 00:39:41;;;;;;;;;;;;;;;;;;422035;23;1009;-85
2024/03/13 00:39:51;;;;;;;;;;;;;;;;;;422434;23;1009;-85
2024/03/13 00:40:03;;;;;;;;;;;;;;;;;;422240;23;1242;-85
2024/03/13 00:40:13;;;;;;;;;;;;;;;;;;424396;23;1169;-85
2024/03/13 00:40:24;;;;;;;;;;;;;;;;;;424394;23;1262;-85
2024/03/13 00:40:36;;;;;;;;;;;;;;;;;;422361;23;1021;-85
2024/03/13 00:40:48;;;;;;;;;;;;;;;;;;420195;23;1047;-85
2024/03/13 00:40:58;;;;;;;;;;;;;;;;;;422409;23;1430;-85
2024/03/13 00:41:09;;;;;;;;;;;;;;;;;;422133;23;1269;-85
2024/03/13 00:41:20;;;;;;;;;;;;;;;;;;424318;23;1159;-85
2024/03/13 00:41:30;;;;;;;;;;;;;;;;;;422229;23;1257;-85
2024/03/13 00:41:40;;;;;;;;;;;;;;;;;;422390;23;947;-85
2024/03/13 00:41:50;;;;;;;;;;;;;;;;;;422268;23;1318;-85
2024/03/13 00:42:02;;;;;;;;;;;;;;;;;;426373;23;1160;-85
2024/03/13 00:42:12;;;;;;;;;;;;;;;;;;426391;23;933;-85
2024/03/13 00:42:23;;;;;;;;;;;;;;;;;;424369;23;966;-86
2024/03/13 00:42:33;;;;;;;;;;;;;;;;;;424424;23;977;-86
2024/03/13 00:42:44;;;;;;;;;;;;;;;;;;424428;23;713;-86
2024/03/13 00:42:54;;;;;;;;;;;;;;;;;;424251;23;1932;-86
2024/03/13 00:43:04;;;;;;;;;;;;;;;;;;422472;23;973;-86
2024/03/13 00:43:14;;;;;;;;;;;;;;;;;;422279;23;1149;-85
2024/03/13 00:43:25;;;;;;;;;;;;;;;;;;422267;23;1349;-85
2024/03/13 00:43:35;;;;;;;;;;;;;;;;;;422316;23;1100;-85
2024/03/13 00:43:45;;;;;;;;;;;;;;;;;;422367;23;898;-86
2024/03/13 00:43:55;;;;;;;;;;;;;;;;;;422413;23;1176;-86
2024/03/13 00:44:07;;;;;;;;;;;;;;;;;;424379;23;1194;-85
2024/03/13 00:44:17;;;;;;;;;;;;;;;;;;424371;23;1281;-85
2024/03/13 00:44:27;;;;;;;;;;;;;;;;;;426263;23;1185;-87
2024/03/13 00:44:39;;;;;;;;;;;;;;;;;;428514;23;1283;-86
2024/03/13 00:44:52;;;;;;;;;;;;;;;;;;422296;23;1279;-86
2024/03/13 00:45:03;;;;;;;;;;;;;;;;;;424345;23;1020;-85
2024/03/13 00:45:13;;;;;;;;;;;;;;;;;;424427;23;1149;-86
2024/03/13 00:45:23;;;;;;;;;;;;;;;;;;424358;23;957;-86
2024/03/13 00:45:33;;;;;;;;;;;;;;;;;;424466;23;1243;-86
2024/03/13 00:45:44;;;;;;;;;;;;;;;;;;424357;23;1344;-86
2024/03/13 00:45:54;;;;;;;;;;;;;;;;;;426419;23;1278;-86
2024/03/13 00:46:04;;;;;;;;;;;;;;;;;;424384;23;1188;-86
2024/03/13 00:46:14;;;;;;;;;;;;;;;;;;424340;23;1289;-85
2024/03/13 00:46:24;;;;;;;;;;;;;;;;;;426329;23;973;-86
2024/03/13 00:46:35;;;;;;;;;;;;;;;;;;426361;23;1024;-85
2024/03/13 00:46:46;;;;;;;;;;;;;;;;;;426517;23;929;-86
2024/03/13 00:46:57;;;;;;;;;;;;;;;;;;424334;23;886;-86
2024/03/13 00:47:08;;;;;;;;;;;;;;;;;;426437;23;1261;-85
2024/03/13 00:47:19;;;;;;;;;;;;;;;;;;426604;23;869;-85
2024/03/13 00:47:30;;;;;;;;;;;;;;;;;;426268;23;1251;-86
2024/03/13 00:47:40;;;;;;;;;;;;;;;;;;426490;23;953;-85
2024/03/13 00:47:51;;;;;;;;;;;;;;;;;;424270;23;1359;-86
2024/03/13 00:48:01;;;;;;;;;;;;;;;;;;424420;23;957;-85
2024/03/13 00:48:11;;;;;;;;;;;;;;;;;;424266;23;1221;-85
2024/03/13 00:48:21;;;;;;;;;;;;;;;;;;426522;23;1288;-86
2024/03/13 00:48:32;;;;;;;;;;;;;;;;;;424424;23;1028;-86
2024/03/13 00:48:42;;;;;;;;;;;;;;;;;;424446;23;1168;-85
2024/03/13 00:48:54;;;;;;;;;;;;;;;;;;424290;23;1267;-86
2024/03/13 00:49:05;;;;;;;;;;;;;;;;;;424301;23;1203;-86
2024/03/13 00:49:15;;;;;;;;;;;;;;;;;;426471;23;969;-86
2024/03/13 00:49:26;;;;;;;;;;;;;;;;;;424390;23;1160;-85
2024/03/13 00:49:37;;;;;;;;;;;;;;;;;;422437;23;1020;-86
2024/03/13 00:49:47;;;;;;;;;;;;;;;;;;424511;23;957;-85
2024/03/13 00:49:58;;;;;;;;;;;;;;;;;;422436;23;1008;-85
2024/03/13 00:50:09;;;;;;;;;;;;;;;;;;424409;23;1163;-86
2024/03/13 00:50:19;;;;;;;;;;;;;;;;;;424426;23;886;-85
2024/03/13 00:50:29;;;;;;;;;;;;;;;;;;422267;23;1147;-86
2024/03/13 00:50:40;;;;;;;;;;;;;;;;;;420068;23;1432;-85
2024/03/13 00:50:50;;;;;;;;;;;;;;;;;;420261;23;780;-85
2024/03/13 00:51:00;;;;;;;;;;;;;;;;;;422410;23;827;-85
2024/03/13 00:51:10;;;;;;;;;;;;;;;;;;422406;23;1078;-85
2024/03/13 00:51:21;;;;;;;;;;;;;;;;;;422225;23;1193;-85
2024/03/13 00:51:31;;;;;;;;;;;;;;;;;;424365;23;1440;-85
2024/03/13 00:51:44;;;;;;;;;;;;;;;;;;422269;23;1246;-85
2024/03/13 00:51:54;;;;;;;;;;;;;;;;;;422373;23;1166;-85
2024/03/13 00:52:07;;;;;;;;;;;;;;;;;;422459;23;973;-85
2024/03/13 00:52:18;;;;;;;;;;;;;;;;;;422270;23;1090;-85
2024/03/13 00:52:29;;;;;;;;;;;;;;;;;;422481;23;1012;-85
2024/03/13 00:52:39;;;;;;;;;;;;;;;;;;422294;23;1268;-85
2024/03/13 00:52:50;;;;;;;;;;;;;;;;;;422282;23;1557;-85
2024/03/13 00:53:01;;;;;;;;;;;;;;;;;;422310;23;1153;-85
2024/03/13 00:53:12;;;;;;;;;;;;;;;;;;424318;23;1223;-85
2024/03/13 00:53:23;;;;;;;;;;;;;;;;;;424453;23;989;-85
2024/03/13 00:53:33;;;;;;;;;;;;;;;;;;422347;23;1229;-85
2024/03/13 00:53:44;;;;;;;;;;;;;;;;;;424360;23;1177;-85
2024/03/13 00:53:54;;;;;;;;;;;;;;;;;;424481;23;1047;-85
2024/03/13 00:54:05;;;;;;;;;;;;;;;;;;424234;23;835;-86
2024/03/13 00:54:15;;;;;;;;;;;;;;;;;;424309;23;1273;-85
2024/03/13 00:54:27;;;;;;;;;;;;;;;;;;422281;23;1199;-86
2024/03/13 00:54:47;;;;;;;;;;;;;;;;;;422361;23;1005;-85
2024/03/13 00:54:57;;;;;;;;;;;;;;;;;;422346;23;950;-86
2024/03/13 00:55:10;;;;;;;;;;;;;;;;;;422354;23;977;-85
2024/03/13 00:55:20;;;;;;;;;;;;;;;;;;420308;23;1275;-86
2024/03/13 00:55:32;;;;;;;;;;;;;;;;;;420098;23;1299;-85
2024/03/13 00:55:42;;;;;;;;;;;;;;;;;;420347;23;1178;-86
2024/03/13 00:55:54;;;;;;;;;;;;;;;;;;420338;23;954;-85
2024/03/13 00:56:05;;;;;;;;;;;;;;;;;;420263;23;954;-85
2024/03/13 00:56:15;;;;;;;;;;;;;;;;;;422284;23;1033;-85
2024/03/13 00:56:29;;;;;;;;;;;;;;;;;;424343;23;1150;-86
2024/03/13 00:56:39;;;;;;;;;;;;;;;;;;424290;23;1413;-85
2024/03/13 00:56:50;;;;;;;;;;;;;;;;;;424392;23;1036;-85
2024/03/13 00:57:01;;;;;;;;;;;;;;;;;;424273;23;1215;-85
2024/03/13 00:57:12;;;;;;;;;;;;;;;;;;426352;23;1407;-84
2024/03/13 00:57:22;;;;;;;;;;;;;;;;;;426527;23;747;-85
2024/03/13 00:57:32;;;;;;;;;;;;;;;;;;422346;23;1215;-86
2024/03/13 00:57:43;;;;;;;;;;;;;;;;;;420227;23;1174;-86
2024/03/13 00:57:53;;;;;;;;;;;;;;;;;;419831;23;1154;-85
2024/03/13 00:58:03;;;;;;;;;;;;;;;;;;420378;23;1266;-86
2024/03/13 00:58:13;;;;;;;;;;;;;;;;;;420407;23;775;-85
2024/03/13 00:58:24;;;;;;;;;;;;;;;;;;420448;23;870;-85
2024/03/13 00:58:36;;;;;;;;;;;;;;;;;;420345;23;859;-86
2024/03/13 00:58:48;;;;;;;;;;;;;;;;;;420341;23;1013;-86
2024/03/13 00:58:59;;;;;;;;;;;;;;;;;;420340;23;1013;-85
2024/03/13 00:59:11;;;;;;;;;;;;;;;;;;420373;23;839;-86
2024/03/13 00:59:23;;;;;;;;;;;;;;;;;;420281;23;958;-86
2024/03/13 00:59:34;;;;;;;;;;;;;;;;;;422397;23;1012;-85
2024/03/13 00:59:44;;;;;;;;;;;;;;;;;;422314;23;1057;-86
2024/03/13 00:59:55;;;;;;;;;;;;;;;;;;422548;23;1178;-86
2024/03/13 01:00:09;;;;;;;;;;;;;;;;;;424247;23;962;-86
2024/03/13 01:00:22;;;;;;;;;;;;;;;;;;424354;23;950;-86
2024/03/13 01:00:35;;;;;;;;;;;;;;;;;;426581;23;977;-86
2024/03/13 01:00:48;;;;;;;;;;;;;;;;;;422282;23;1366;-86
2024/03/13 01:00:58;;;;;;;;;;;;;;;;;;420303;23;1179;-86
2024/03/13 01:01:12;;;;;;;;;;;;;;;;;;424061;23;1220;-85
2024/03/13 01:01:22;;;;;;;;;;;;;;;;;;426382;23;1280;-86
2024/03/13 01:01:32;;;;;;;;;;;;;;;;;;424349;23;1184;-86
2024/03/13 01:01:44;;;;;;;;;;;;;;;;;;424408;23;1263;-86
2024/03/13 01:01:55;;;;;;;;;;;;;;;;;;420405;23;1236;-86
2024/03/13 01:02:07;;;;;;;;;;;;;;;;;;420371;23;1230;-86
2024/03/13 01:02:17;;;;;;;;;;;;;;;;;;420372;23;958;-86
2024/03/13 01:02:28;;;;;;;;;;;;;;;;;;420310;23;1563;-86
2024/03/13 01:02:40;;;;;;;;;;;;;;;;;;420315;23;1272;-86
2024/03/13 01:02:51;;;;;;;;;;;;;;;;;;420236;23;1901;-86
2024/03/13 01:03:02;;;;;;;;;;;;;;;;;;420278;23;1326;-86
2024/03/13 01:03:14;;;;;;;;;;;;;;;;;;420468;23;965;-86
2024/03/13 01:03:25;;;;;;;;;;;;;;;;;;422396;23;1158;-85
2024/03/13 01:03:37;;;;;;;;;;;;;;;;;;422089;23;970;-86
2024/03/13 01:03:47;;;;;;;;;;;;;;;;;;424479;23;1028;-86
2024/03/13 01:04:00;;;;;;;;;;;;;;;;;;424390;23;954;-86
2024/03/13 01:04:11;;;;;;;;;;;;;;;;;;424299;23;1342;-86
2024/03/13 01:04:24;;;;;;;;;;;;;;;;;;422431;23;1306;-86
2024/03/13 01:04:35;;;;;;;;;;;;;;;;;;420326;23;1126;-85
2024/03/13 01:04:45;;;;;;;;;;;;;;;;;;422302;23;1264;-86
2024/03/13 01:04:55;;;;;;;;;;;;;;;;;;422145;23;1145;-85
2024/03/13 01:05:06;;;;;;;;;;;;;;;;;;422389;23;1001;-85
2024/03/13 01:05:16;;;;;;;;;;;;;;;;;;422246;23;1176;-85
2024/03/13 01:05:27;;;;;;;;;;;;;;;;;;422475;23;997;-85
2024/03/13 01:05:40;;;;;;;;;;;;;;;;;;420242;23;1177;-85
2024/03/13 01:05:50;;;;;;;;;;;;;;;;;;422405;23;1374;-86
2024/03/13 01:06:01;;;;;;;;;;;;;;;;;;422278;23;954;-86
2024/03/13 01:06:11;;;;;;;;;;;;;;;;;;422362;23;1315;-85
2024/03/13 01:06:21;;;;;;;;;;;;;;;;;;422235;23;997;-86
2024/03/13 01:06:31;;;;;;;;;;;;;;;;;;422479;23;756;-85
2024/03/13 01:06:42;;;;;;;;;;;;;;;;;;422311;23;1253;-85
2024/03/13 01:06:52;;;;;;;;;;;;;;;;;;422322;23;1002;-85
2024/03/13 01:07:09;;;;;;;;;;;;;;;;;;424338;23;1351;-85
2024/03/13 01:07:19;;;;;;;;;;;;;;;;;;424276;23;949;-85
2024/03/13 01:07:30;;;;;;;;;;;;;;;;;;420180;23;1157;-84
2024/03/13 01:07:40;;;;;;;;;;;;;;;;;;422016;23;1248;-85
2024/03/13 01:07:51;;;;;;;;;;;;;;;;;;422338;23;1342;-85
2024/03/13 01:08:01;;;;;;;;;;;;;;;;;;424352;23;830;-85
2024/03/13 01:08:11;;;;;;;;;;;;;;;;;;424075;23;1340;-84
2024/03/13 01:08:27;;;;;;;;;;;;;;;;;;424390;23;708;-85
2024/03/13 01:08:38;;;;;;;;;;;;;;;;;;426559;23;930;-85
2024/03/13 01:08:50;;;;;;;;;;;;;;;;;;426359;23;986;-84
2024/03/13 01:09:00;;;;;;;;;;;;;;;;;;422362;23;1203;-85
2024/03/13 01:09:10;;;;;;;;;;;;;;;;;;422157;23;1325;-84
2024/03/13 01:09:23;;;;;;;;;;;;;;;;;;422320;23;958;-85
2024/03/13 01:09:34;;;;;;;;;;;;;;;;;;422232;23;1199;-85
2024/03/13 01:09:44;;;;;;;;;;;;;;;;;;422301;23;957;-85
2024/03/13 01:09:55;;;;;;;;;;;;;;;;;;426208;23;1160;-85
2024/03/13 01:10:06;;;;;;;;;;;;;;;;;;426456;23;856;-84
2024/03/13 01:10:16;;;;;;;;;;;;;;;;;;426438;23;992;-85
2024/03/13 01:10:27;;;;;;;;;;;;;;;;;;424278;23;1309;-85
2024/03/13 01:10:39;;;;;;;;;;;;;;;;;;426366;23;917;-85
2024/03/13 01:10:50;;;;;;;;;;;;;;;;;;424345;23;1278;-85
2024/03/13 01:11:00;;;;;;;;;;;;;;;;;;424465;23;938;-85
2024/03/13 01:11:11;;;;;;;;;;;;;;;;;;424156;23;1084;-85
2024/03/13 01:11:21;;;;;;;;;;;;;;;;;;424334;23;1385;-85
2024/03/13 01:11:33;;;;;;;;;;;;;;;;;;422266;23;1314;-85
2024/03/13 01:11:44;;;;;;;;;;;;;;;;;;422264;23;968;-85
2024/03/13 01:11:54;;;;;;;;;;;;;;;;;;421771;23;1311;-86
2024/03/13 01:12:05;;;;;;;;;;;;;;;;;;420291;23;1240;-84
2024/03/13 01:12:19;;;;;;;;;;;;;;;;;;422233;23;1788;-85
2024/03/13 01:12:29;;;;;;;;;;;;;;;;;;422169;23;1191;-85
2024/03/13 01:12:40;;;;;;;;;;;;;;;;;;424157;23;1057;-85
2024/03/13 01:12:50;;;;;;;;;;;;;;;;;;426425;23;1425;-86
2024/03/13 01:13:00;;;;;;;;;;;;;;;;;;426371;23;953;-86
2024/03/13 01:13:11;;;;;;;;;;;;;;;;;;426471;23;1008;-86
2024/03/13 01:13:21;;;;;;;;;;;;;;;;;;424375;23;1201;-86
2024/03/13 01:13:32;;;;;;;;;;;;;;;;;;422290;23;1186;-85
2024/03/13 01:13:42;;;;;;;;;;;;;;;;;;424370;23;972;-86
2024/03/13 01:13:52;;;;;;;;;;;;;;;;;;428473;23;1167;-86
2024/03/13 01:14:06;;;;;;;;;;;;;;;;;;426146;23;1318;-86
2024/03/13 01:14:19;;;;;;;;;;;;;;;;;;424404;23;938;-86
2024/03/13 01:14:30;;;;;;;;;;;;;;;;;;424265;23;1412;-86
2024/03/13 01:14:40;;;;;;;;;;;;;;;;;;424085;23;1040;-86
2024/03/13 01:14:50;;;;;;;;;;;;;;;;;;426349;23;1143;-86
2024/03/13 01:15:00;;;;;;;;;;;;;;;;;;426499;23;1036;-86
2024/03/13 01:15:11;;;;;;;;;;;;;;;;;;422340;23;1201;-86
2024/03/13 01:15:21;;;;;;;;;;;;;;;;;;422369;23;1001;-86
2024/03/13 01:15:31;;;;;;;;;;;;;;;;;;426258;23;1216;-86
2024/03/13 01:15:43;;;;;;;;;;;;;;;;;;426503;23;1241;-86
2024/03/13 01:15:54;;;;;;;;;;;;;;;;;;426564;23;1053;-85
2024/03/13 01:16:07;;;;;;;;;;;;;;;;;;426714;23;795;-86
2024/03/13 01:16:17;;;;;;;;;;;;;;;;;;426607;23;799;-86
2024/03/13 01:16:27;;;;;;;;;;;;;;;;;;422254;23;1267;-86
2024/03/13 01:16:38;;;;;;;;;;;;;;;;;;424497;23;1237;-86
2024/03/13 01:16:51;;;;;;;;;;;;;;;;;;420264;23;950;-85
2024/03/13 01:17:02;;;;;;;;;;;;;;;;;;420409;23;1184;-86
2024/03/13 01:17:12;;;;;;;;;;;;;;;;;;420330;23;998;-85
2024/03/13 01:17:23;;;;;;;;;;;;;;;;;;420340;23;1299;-86
2024/03/13 01:17:34;;;;;;;;;;;;;;;;;;422444;23;1001;-86
2024/03/13 01:17:44;;;;;;;;;;;;;;;;;;424502;23;1298;-86
2024/03/13 01:17:57;;;;;;;;;;;;;;;;;;424494;23;953;-86
2024/03/13 01:18:09;;;;;;;;;;;;;;;;;;424589;23;977;-86
2024/03/13 01:18:19;;;;;;;;;;;;;;;;;;426595;23;1205;-86
2024/03/13 01:18:30;;;;;;;;;;;;;;;;;;422475;23;1178;-85